Time;durP1;ratioP1;P1;durP2;ratioP2;P2;SDS_P1;SDS_P2;PMS_P1;PMS_P2;Temp;Humidity;BMP_temperature;BMP_pressure;BME280_temperature;BME280_humidity;BME280_pressure;Samples;Min_cycle;Max_cycle;Signal;HPM_P1;HPM_P2
2021/04/13 00:01:30;;;;;;;4.32;2.38;;;;;;;;;;5042686;28;20036;-48
2021/04/13 00:04:08;;;;;;;6.50;2.55;;;;;;;;;;5048280;28;20033;-48
2021/04/13 00:06:40;;;;;;;4.85;2.55;;;;;;;;;;5053231;28;20020;-49
2021/04/13 00:09:16;;;;;;;6.32;2.75;;;;;;;;;;5049276;28;20029;-48
2021/04/13 00:11:43;;;;;;;5.22;3.05;;;;;;;;;;5034739;28;20487;-48
2021/04/13 00:14:10;;;;;;;3.80;2.80;;;;;;;;;;5043781;28;20025;-48
2021/04/13 00:16:37;;;;;;;3.38;2.53;;;;;;;;;;5039900;28;20622;-47
2021/04/13 00:19:04;;;;;;;4.47;2.58;;;;;;;;;;5057261;28;20043;-49
2021/04/13 00:21:32;;;;;;;4.03;2.95;;;;;;;;;;5054823;28;20108;-48
2021/04/13 00:24:00;;;;;;;3.35;2.40;;;;;;;;;;5042834;28;20068;-48
2021/04/13 00:26:28;;;;;;;4.78;2.47;;;;;;;;;;5054803;28;20017;-49
2021/04/13 00:28:54;;;;;;;3.97;2.83;;;;;;;;;;5043284;28;20047;-47
2021/04/13 00:31:39;;;;;;;3.63;2.50;;;;;;;;;;5051151;28;20461;-48
2021/04/13 00:34:06;;;;;;;5.40;3.05;;;;;;;;;;5046917;28;20039;-49
2021/04/13 00:36:33;;;;;;;3.63;2.55;;;;;;;;;;5055870;28;20373;-48
2021/04/13 00:38:59;;;;;;;4.57;2.90;;;;;;;;;;5050968;28;20025;-48
2021/04/13 00:41:29;;;;;;;4.28;2.58;;;;;;;;;;5052847;28;20032;-52
2021/04/13 00:43:57;;;;;;;5.47;2.70;;;;;;;;;;5049069;28;20028;-51
2021/04/13 00:46:25;;;;;;;6.47;2.63;;;;;;;;;;5048187;28;20112;-49
2021/04/13 00:48:51;;;;;;;4.60;2.55;;;;;;;;;;5052139;28;20604;-50
2021/04/13 00:51:39;;;;;;;4.68;2.63;;;;;;;;;;5044842;28;20051;-48
2021/04/13 00:54:26;;;;;;;5.57;2.80;;;;;;;;;;5052261;28;20526;-48
2021/04/13 00:56:52;;;;;;;4.13;2.90;;;;;;;;;;5041448;28;20022;-48
2021/04/13 00:59:19;;;;;;;5.18;2.90;;;;;;;;;;5044567;28;20420;-48
2021/04/13 01:01:57;;;;;;;5.53;3.13;;;;;;;;;;5050421;28;20033;-51
2021/04/13 01:04:40;;;;;;;4.05;2.80;;;;;;;;;;5045828;28;20037;-48
2021/04/13 01:07:16;;;;;;;4.47;3.00;;;;;;;;;;5049047;28;20476;-48
2021/04/13 01:09:44;;;;;;;4.85;2.75;;;;;;;;;;5049192;28;20102;-49
2021/04/13 01:12:16;;;;;;;4.20;2.70;;;;;;;;;;5052557;28;20120;-48
2021/04/13 01:14:43;;;;;;;5.50;3.28;;;;;;;;;;5052041;28;20109;-49
2021/04/13 01:17:10;;;;;;;3.83;2.97;;;;;;;;;;5052567;28;20108;-48
2021/04/13 01:19:43;;;;;;;3.42;2.55;;;;;;;;;;5052660;28;20494;-48
2021/04/13 01:22:17;;;;;;;3.70;2.95;;;;;;;;;;5060606;28;20094;-48
2021/04/13 01:24:51;;;;;;;7.15;3.45;;;;;;;;;;5048583;28;20031;-50
2021/04/13 01:27:18;;;;;;;5.38;2.78;;;;;;;;;;5049581;28;20052;-47
2021/04/13 01:29:45;;;;;;;6.15;2.95;;;;;;;;;;5043022;28;20025;-48
2021/04/13 01:32:11;;;;;;;5.13;2.97;;;;;;;;;;5049869;28;20079;-49
2021/04/13 01:34:42;;;;;;;3.22;2.60;;;;;;;;;;5052916;28;20100;-49
2021/04/13 01:37:16;;;;;;;4.47;3.20;;;;;;;;;;5057344;28;20561;-48
2021/04/13 01:39:49;;;;;;;5.90;2.63;;;;;;;;;;5053632;28;20020;-47
2021/04/13 01:42:15;;;;;;;3.72;2.55;;;;;;;;;;5061471;28;20027;-48
2021/04/13 01:44:44;;;;;;;9.63;2.88;;;;;;;;;;5050737;28;20393;-49
2021/04/13 01:47:15;;;;;;;4.75;3.15;;;;;;;;;;5051610;28;20039;-51
2021/04/13 01:49:43;;;;;;;12.07;3.08;;;;;;;;;;5047356;28;20061;-50
2021/04/13 01:52:13;;;;;;;5.63;2.88;;;;;;;;;;5049386;28;20132;-51
2021/04/13 01:54:39;;;;;;;5.63;3.00;;;;;;;;;;5048804;28;20112;-48
2021/04/13 01:57:24;;;;;;;4.18;3.08;;;;;;;;;;5038395;28;20017;-51
2021/04/13 01:59:53;;;;;;;4.95;3.20;;;;;;;;;;5057625;28;20029;-48
2021/04/13 02:02:30;;;;;;;5.10;3.10;;;;;;;;;;5052617;28;20036;-49
2021/04/13 02:05:02;;;;;;;6.32;3.80;;;;;;;;;;5045701;28;20064;-48
2021/04/13 02:07:55;;;;;;;5.18;3.28;;;;;;;;;;5056556;28;20487;-49
2021/04/13 02:10:29;;;;;;;5.50;3.85;;;;;;;;;;5051533;28;20047;-49
2021/04/13 02:12:57;;;;;;;5.22;3.88;;;;;;;;;;5046508;28;20029;-48
2021/04/13 02:15:33;;;;;;;6.63;3.67;;;;;;;;;;5049994;28;20035;-50
2021/04/13 02:18:02;;;;;;;5.32;3.42;;;;;;;;;;5042776;28;20541;-48
2021/04/13 02:20:30;;;;;;;5.97;3.97;;;;;;;;;;5039788;28;20082;-48
2021/04/13 02:22:56;;;;;;;7.40;3.63;;;;;;;;;;5041753;28;20025;-48
2021/04/13 02:25:24;;;;;;;5.43;3.72;;;;;;;;;;5049779;28;20029;-48
2021/04/13 02:27:52;;;;;;;5.60;3.80;;;;;;;;;;5050599;28;20452;-48
2021/04/13 02:30:27;;;;;;;7.72;4.13;;;;;;;;;;5061638;28;20060;-48
2021/04/13 02:32:53;;;;;;;7.32;4.35;;;;;;;;;;5048561;28;20036;-48
2021/04/13 02:35:21;;;;;;;4.90;3.88;;;;;;;;;;5042528;28;20025;-49
2021/04/13 02:37:51;;;;;;;8.23;4.85;;;;;;;;;;5045561;28;20104;-48
2021/04/13 02:40:18;;;;;;;8.35;4.85;;;;;;;;;;5041013;28;20132;-48
2021/04/13 02:42:45;;;;;;;7.13;4.35;;;;;;;;;;5056151;28;20025;-48
2021/04/13 02:45:12;;;;;;;7.75;5.25;;;;;;;;;;5049298;28;20482;-47
2021/04/13 02:47:45;;;;;;;6.50;4.93;;;;;;;;;;5042259;28;20112;-48
2021/04/13 02:50:14;;;;;;;6.13;4.53;;;;;;;;;;5050538;28;20097;-53
2021/04/13 02:52:43;;;;;;;9.32;5.35;;;;;;;;;;5040990;28;20098;-49
2021/04/13 02:55:10;;;;;;;9.10;5.45;;;;;;;;;;5045533;28;20039;-50
2021/04/13 02:57:41;;;;;;;8.07;5.88;;;;;;;;;;5047176;28;20044;-47
2021/04/13 03:00:09;;;;;;;10.63;5.75;;;;;;;;;;5050170;28;20472;-50
2021/04/13 03:02:46;;;;;;;8.60;5.53;;;;;;;;;;5045763;28;20164;-48
2021/04/13 03:05:31;;;;;;;12.90;5.75;;;;;;;;;;5042371;28;20464;-48
2021/04/13 03:07:58;;;;;;;8.70;5.22;;;;;;;;;;5040614;28;20080;-51
2021/04/13 03:10:28;;;;;;;9.23;5.53;;;;;;;;;;5044615;28;20033;-48
2021/04/13 03:12:55;;;;;;;9.55;5.43;;;;;;;;;;5044911;28;20033;-48
2021/04/13 03:15:25;;;;;;;13.88;5.82;;;;;;;;;;5050433;28;20087;-48
2021/04/13 03:17:53;;;;;;;11.30;6.22;;;;;;;;;;5043563;28;20032;-48
2021/04/13 03:20:26;;;;;;;10.38;6.03;;;;;;;;;;5050579;28;20109;-50
2021/04/13 03:22:53;;;;;;;8.20;4.60;;;;;;;;;;5049561;28;20057;-48
2021/04/13 03:25:22;;;;;;;10.60;6.03;;;;;;;;;;5047168;28;20423;-48
2021/04/13 03:27:48;;;;;;;9.48;6.70;;;;;;;;;;5049505;28;20029;-48
2021/04/13 03:30:19;;;;;;;9.95;6.28;;;;;;;;;;5050399;28;20140;-48
2021/04/13 03:32:54;;;;;;;9.30;6.18;;;;;;;;;;5042809;28;20162;-49
2021/04/13 03:35:23;;;;;;;10.30;6.68;;;;;;;;;;5041787;28;20029;-48
2021/04/13 03:37:49;;;;;;;10.95;6.30;;;;;;;;;;5052627;28;20029;-48
2021/04/13 03:40:16;;;;;;;9.07;6.63;;;;;;;;;;5046637;28;20028;-54
2021/04/13 03:42:43;;;;;;;13.25;7.63;;;;;;;;;;5041315;28;20559;-47
2021/04/13 03:45:11;;;;;;;10.23;7.13;;;;;;;;;;5053561;28;20040;-51
2021/04/13 03:47:38;;;;;;;12.30;6.70;;;;;;;;;;5054355;28;20032;-50
2021/04/13 03:50:06;;;;;;;15.05;7.85;;;;;;;;;;5059432;28;20385;-54
2021/04/13 03:52:33;;;;;;;13.02;7.95;;;;;;;;;;5049412;28;20053;-48
2021/04/13 03:55:18;;;;;;;11.85;6.85;;;;;;;;;;5054454;28;20029;-48
2021/04/13 03:57:44;;;;;;;9.52;7.00;;;;;;;;;;5048466;28;20028;-48
2021/04/13 04:00:14;;;;;;;12.38;7.35;;;;;;;;;;5049169;28;20062;-48
2021/04/13 04:02:40;;;;;;;13.10;7.05;;;;;;;;;;5051798;28;20086;-49
2021/04/13 04:05:15;;;;;;;15.05;7.38;;;;;;;;;;5047654;28;20032;-48
2021/04/13 04:07:51;;;;;;;16.58;7.93;;;;;;;;;;5044175;28;20032;-48
2021/04/13 04:10:35;;;;;;;13.57;7.25;;;;;;;;;;5043765;28;20018;-48
2021/04/13 04:13:05;;;;;;;15.18;7.88;;;;;;;;;;5041818;28;20029;-48
2021/04/13 04:15:38;;;;;;;14.88;7.70;;;;;;;;;;5046835;28;20053;-48
2021/04/13 04:18:10;;;;;;;14.82;8.18;;;;;;;;;;5053708;28;20043;-48
2021/04/13 04:20:36;;;;;;;10.40;6.80;;;;;;;;;;5040760;28;20476;-49
2021/04/13 04:23:03;;;;;;;12.95;7.28;;;;;;;;;;5042988;28;20780;-47
2021/04/13 04:25:35;;;;;;;12.18;8.10;;;;;;;;;;5052550;28;20025;-49
2021/04/13 04:28:03;;;;;;;15.13;6.85;;;;;;;;;;5054347;28;20039;-48
2021/04/13 04:30:31;;;;;;;14.10;7.63;;;;;;;;;;5055320;28;20400;-48
2021/04/13 04:32:58;;;;;;;10.07;6.95;;;;;;;;;;5052809;28;20718;-48
2021/04/13 04:35:34;;;;;;;11.25;7.78;;;;;;;;;;5053377;28;20025;-50
2021/04/13 04:38:08;;;;;;;11.50;8.43;;;;;;;;;;5048073;28;20029;-50
2021/04/13 04:40:38;;;;;;;12.43;8.20;;;;;;;;;;5046364;28;20086;-48
2021/04/13 04:43:06;;;;;;;13.65;8.98;;;;;;;;;;5050422;28;20456;-49
2021/04/13 04:45:44;;;;;;;15.57;9.32;;;;;;;;;;5055466;28;20107;-51
2021/04/13 04:48:24;;;;;;;13.32;9.13;;;;;;;;;;5055212;28;20021;-52
2021/04/13 04:50:51;;;;;;;13.50;9.65;;;;;;;;;;5051624;28;20116;-48
2021/04/13 04:53:18;;;;;;;14.52;9.60;;;;;;;;;;5050763;28;20119;-52
2021/04/13 04:55:44;;;;;;;17.25;9.80;;;;;;;;;;5053974;28;20392;-49
2021/04/13 04:58:10;;;;;;;17.38;11.00;;;;;;;;;;5049215;28;20028;-48
2021/04/13 05:00:36;;;;;;;17.77;10.40;;;;;;;;;;5053477;28;20108;-48
2021/04/13 05:03:03;;;;;;;17.40;10.95;;;;;;;;;;5053192;28;20051;-48
2021/04/13 05:05:29;;;;;;;20.38;11.98;;;;;;;;;;5050739;28;20474;-49
2021/04/13 05:07:55;;;;;;;19.33;11.50;;;;;;;;;;5052242;28;21852;-49
2021/04/13 05:10:21;;;;;;;19.65;12.15;;;;;;;;;;5056779;28;20033;-47
2021/04/13 05:12:46;;;;;;;20.67;11.55;;;;;;;;;;5053523;28;21750;-48
2021/04/13 05:15:13;;;;;;;20.65;12.65;;;;;;;;;;5053041;28;20033;-48
2021/04/13 05:17:39;;;;;;;20.90;12.23;;;;;;;;;;5052764;28;20520;-48
2021/04/13 05:20:05;;;;;;;20.67;13.45;;;;;;;;;;5059738;28;20107;-51
2021/04/13 05:22:31;;;;;;;18.98;12.57;;;;;;;;;;5054216;28;20111;-49
2021/04/13 05:24:57;;;;;;;18.55;13.32;;;;;;;;;;5058073;28;20115;-48
2021/04/13 05:27:23;;;;;;;20.05;12.48;;;;;;;;;;5049198;28;20024;-48
2021/04/13 05:29:49;;;;;;;20.15;11.88;;;;;;;;;;5048841;28;20032;-48
2021/04/13 05:32:15;;;;;;;22.10;13.27;;;;;;;;;;5052201;28;20087;-50
2021/04/13 05:34:41;;;;;;;20.13;12.73;;;;;;;;;;5051564;28;20449;-49
2021/04/13 05:37:09;;;;;;;20.85;13.55;;;;;;;;;;5052231;28;20401;-49
2021/04/13 05:39:35;;;;;;;19.50;13.10;;;;;;;;;;5043156;28;20104;-48
2021/04/13 05:42:01;;;;;;;22.83;12.40;;;;;;;;;;5037483;28;20155;-48
2021/04/13 05:44:27;;;;;;;22.88;13.50;;;;;;;;;;5040302;28;20115;-48
2021/04/13 05:46:54;;;;;;;20.30;12.85;;;;;;;;;;5048906;28;20029;-48
2021/04/13 05:49:20;;;;;;;20.58;12.50;;;;;;;;;;5047005;28;20035;-49
2021/04/13 05:51:49;;;;;;;20.75;13.52;;;;;;;;;;5042838;28;20052;-49
2021/04/13 05:54:15;;;;;;;23.17;12.15;;;;;;;;;;5046753;28;20040;-49
2021/04/13 05:56:42;;;;;;;22.85;11.57;;;;;;;;;;5043522;28;20038;-49
2021/04/13 05:59:10;;;;;;;20.05;12.25;;;;;;;;;;5043191;28;20132;-51
2021/04/13 06:01:36;;;;;;;19.95;11.73;;;;;;;;;;5045249;28;20413;-48
2021/04/13 06:04:03;;;;;;;23.67;12.30;;;;;;;;;;5037744;28;20041;-49
2021/04/13 06:06:31;;;;;;;19.00;11.65;;;;;;;;;;5036907;28;20117;-52
2021/04/13 06:08:57;;;;;;;19.00;11.50;;;;;;;;;;5043709;28;20114;-50
2021/04/13 06:11:28;;;;;;;15.48;10.13;;;;;;;;;;5049733;28;20096;-49
2021/04/13 06:13:55;;;;;;;19.90;11.40;;;;;;;;;;5038689;28;20116;-49
2021/04/13 06:16:22;;;;;;;18.60;10.77;;;;;;;;;;5047572;28;20067;-48
2021/04/13 06:18:48;;;;;;;18.73;10.82;;;;;;;;;;5041566;28;20045;-48
2021/04/13 06:21:14;;;;;;;18.33;10.20;;;;;;;;;;5042865;28;20056;-48
2021/04/13 06:23:40;;;;;;;17.30;10.43;;;;;;;;;;5044155;28;20037;-50
2021/04/13 06:26:06;;;;;;;17.42;10.57;;;;;;;;;;5041833;28;20036;-48
2021/04/13 06:28:32;;;;;;;17.35;9.48;;;;;;;;;;5043316;28;20056;-50
2021/04/13 06:30:58;;;;;;;13.65;9.13;;;;;;;;;;5043073;28;20029;-49
2021/04/13 06:33:26;;;;;;;14.52;9.65;;;;;;;;;;5042927;28;20029;-49
2021/04/13 06:35:55;;;;;;;16.55;8.85;;;;;;;;;;5035109;28;20021;-48
2021/04/13 06:38:23;;;;;;;19.70;10.32;;;;;;;;;;5049696;28;20029;-48
2021/04/13 06:41:07;;;;;;;14.27;9.07;;;;;;;;;;5049557;28;20064;-49
2021/04/13 06:43:57;;;;;;;14.88;8.50;;;;;;;;;;5041050;28;20100;-51
2021/04/13 06:46:30;;;;;;;14.70;8.27;;;;;;;;;;5042602;28;20082;-48
2021/04/13 06:49:15;;;;;;;14.30;8.10;;;;;;;;;;5044390;28;20029;-48
2021/04/13 06:51:41;;;;;;;12.82;8.10;;;;;;;;;;5043793;28;20049;-48
2021/04/13 06:54:11;;;;;;;14.65;8.63;;;;;;;;;;5032032;28;20033;-48
2021/04/13 06:56:43;;;;;;;16.27;8.05;;;;;;;;;;5047894;28;20112;-50
2021/04/13 06:59:09;;;;;;;14.48;8.20;;;;;;;;;;5043436;28;20096;-50
2021/04/13 07:01:54;;;;;;;13.43;7.20;;;;;;;;;;5039838;28;20036;-49
2021/04/13 07:04:35;;;;;;;10.55;6.70;;;;;;;;;;5040893;28;20097;-48
2021/04/13 07:07:14;;;;;;;11.55;6.78;;;;;;;;;;5038043;28;20027;-49
2021/04/13 07:09:44;;;;;;;13.73;6.45;;;;;;;;;;5043759;28;20024;-51
2021/04/13 07:12:13;;;;;;;11.77;7.25;;;;;;;;;;5055576;28;20474;-49
2021/04/13 07:15:02;;;;;;;11.90;6.50;;;;;;;;;;5053854;28;20167;-50
2021/04/13 07:17:33;;;;;;;16.85;6.35;;;;;;;;;;5043796;28;20575;-48
2021/04/13 07:20:06;;;;;;;10.68;6.82;;;;;;;;;;5050619;28;20623;-49
2021/04/13 07:22:34;;;;;;;15.45;7.55;;;;;;;;;;5042094;28;20186;-48
2021/04/13 07:25:12;;;;;;;9.82;6.10;;;;;;;;;;5053199;28;20410;-48
2021/04/13 07:27:55;;;;;;;13.05;6.30;;;;;;;;;;5043372;28;20376;-48
2021/04/13 07:30:33;;;;;;;13.00;6.03;;;;;;;;;;5041853;28;20036;-49
2021/04/13 07:33:00;;;;;;;12.25;5.50;;;;;;;;;;5054635;28;20061;-50
2021/04/13 07:35:29;;;;;;;14.88;6.20;;;;;;;;;;5054848;28;20571;-48
2021/04/13 07:37:56;;;;;;;11.32;6.38;;;;;;;;;;5047252;28;20127;-50
2021/04/13 07:40:28;;;;;;;11.77;6.18;;;;;;;;;;5054370;28;20544;-48
2021/04/13 07:42:57;;;;;;;8.18;5.03;;;;;;;;;;5048236;28;20111;-48
2021/04/13 07:45:28;;;;;;;10.10;5.97;;;;;;;;;;5034031;28;20033;-48
2021/04/13 07:48:06;;;;;;;10.55;4.47;;;;;;;;;;5048410;28;20029;-48
2021/04/13 07:50:45;;;;;;;8.75;4.75;;;;;;;;;;5055216;28;20100;-48
2021/04/13 07:53:17;;;;;;;8.23;4.85;;;;;;;;;;5065912;28;20041;-50
2021/04/13 07:55:57;;;;;;;6.55;4.25;;;;;;;;;;5054909;28;20021;-48
2021/04/13 07:58:23;;;;;;;10.45;4.97;;;;;;;;;;5044962;28;20112;-48
2021/04/13 08:00:51;;;;;;;8.20;4.90;;;;;;;;;;5048177;28;20017;-51
2021/04/13 08:03:20;;;;;;;11.30;4.88;;;;;;;;;;5046868;28;20132;-49
2021/04/13 08:05:48;;;;;;;9.85;5.07;;;;;;;;;;5046539;28;20028;-48
2021/04/13 08:08:32;;;;;;;7.00;4.22;;;;;;;;;;5048674;28;20033;-51
2021/04/13 08:11:31;;;;;;;12.10;4.50;;;;;;;;;;5049154;28;20036;-50
2021/04/13 08:13:57;;;;;;;8.07;4.43;;;;;;;;;;5056339;28;20056;-49
2021/04/13 08:16:31;;;;;;;8.98;4.20;;;;;;;;;;5037547;28;20033;-48
2021/04/13 08:19:14;;;;;;;8.52;4.03;;;;;;;;;;5037390;28;20080;-48
2021/04/13 08:21:41;;;;;;;4.30;2.90;;;;;;;;;;5037277;28;20037;-48
2021/04/13 08:24:16;;;;;;;9.38;3.42;;;;;;;;;;5047285;28;20508;-49
2021/04/13 08:26:45;;;;;;;9.23;4.18;;;;;;;;;;5052153;28;20119;-50
2021/04/13 08:29:17;;;;;;;9.20;3.40;;;;;;;;;;5048918;28;20040;-49
2021/04/13 08:34:53;;;;;;;8.33;4.10;;;;;;;;;;5043653;28;20154;-48
2021/04/13 08:37:31;;;;;;;6.13;3.63;;;;;;;;;;5051675;28;20025;-49
2021/04/13 08:40:00;;;;;;;10.38;3.40;;;;;;;;;;5048731;28;20491;-49
2021/04/13 08:42:32;;;;;;;12.30;3.45;;;;;;;;;;5051947;28;20116;-49
2021/04/13 08:45:05;;;;;;;8.88;3.05;;;;;;;;;;5047454;28;20420;-49
2021/04/13 08:47:31;;;;;;;;;;;;;;;;;;5034472;28;20116;-50
2021/04/13 08:50:00;;;;;;;8.07;3.10;;;;;;;;;;5047602;28;19940;-49
2021/04/13 08:52:32;;;;;;;15.82;3.38;;;;;;;;;;5050487;28;20043;-49
2021/04/13 08:55:04;;;;;;;6.45;2.65;;;;;;;;;;5041118;28;20032;-48
2021/04/13 08:57:33;;;;;;;8.65;3.10;;;;;;;;;;5049931;28;20552;-49
2021/04/13 09:00:01;;;;;;;8.80;2.50;;;;;;;;;;5044625;28;20040;-49
2021/04/13 09:02:26;;;;;;;7.72;2.85;;;;;;;;;;5050331;28;20033;-49
2021/04/13 09:05:05;;;;;;;5.43;2.70;;;;;;;;;;5045440;28;20048;-48
2021/04/13 09:07:40;;;;;;;9.23;3.03;;;;;;;;;;5048461;28;20037;-51
2021/04/13 09:10:25;;;;;;;9.05;2.58;;;;;;;;;;5049203;28;20029;-48
2021/04/13 09:13:02;;;;;;;9.35;2.65;;;;;;;;;;5049567;28;20029;-48
2021/04/13 09:15:28;;;;;;;8.75;2.85;;;;;;;;;;5043679;28;20013;-49
2021/04/13 09:18:15;;;;;;;6.70;2.97;;;;;;;;;;5053111;28;20384;-49
2021/04/13 09:20:44;;;;;;;9.27;2.55;;;;;;;;;;5048555;28;20021;-48
2021/04/13 09:23:29;;;;;;;9.90;2.90;;;;;;;;;;5049696;28;20187;-49
2021/04/13 09:26:04;;;;;;;6.53;2.38;;;;;;;;;;5051826;28;20028;-50
2021/04/13 09:28:48;;;;;;;6.65;2.45;;;;;;;;;;5053061;28;20025;-51
2021/04/13 09:31:17;;;;;;;9.93;2.70;;;;;;;;;;5050847;28;20496;-50
2021/04/13 09:33:44;;;;;;;6.03;2.55;;;;;;;;;;5040679;28;20048;-49
2021/04/13 09:36:22;;;;;;;7.45;2.17;;;;;;;;;;5049778;28;20017;-50
2021/04/13 09:39:02;;;;;;;4.22;2.00;;;;;;;;;;5048424;28;20092;-49
2021/04/13 09:41:48;;;;;;;5.60;2.08;;;;;;;;;;5052131;28;20416;-48
2021/04/13 09:44:14;;;;;;;5.65;2.03;;;;;;;;;;5046392;28;20047;-50
2021/04/13 09:46:49;;;;;;;6.47;2.45;;;;;;;;;;5049095;28;20033;-49
2021/04/13 09:49:32;;;;;;;8.75;2.20;;;;;;;;;;5040759;28;20031;-49
2021/04/13 09:52:16;;;;;;;7.05;1.92;;;;;;;;;;5044351;28;20110;-48
2021/04/13 09:54:44;;;;;;;9.32;2.42;;;;;;;;;;5050853;28;20103;-49
2021/04/13 09:57:23;;;;;;;7.20;2.58;;;;;;;;;;5050231;28;20499;-48
2021/04/13 10:00:04;;;;;;;9.52;2.45;;;;;;;;;;5051718;28;20104;-48
2021/04/13 10:02:55;;;;;;;11.40;2.20;;;;;;;;;;5052396;28;20146;-48
2021/04/13 10:05:26;;;;;;;4.80;2.35;;;;;;;;;;5040089;28;20143;-48
2021/04/13 10:08:00;;;;;;;6.68;2.47;;;;;;;;;;5060870;28;20039;-49
2021/04/13 10:10:31;;;;;;;10.63;2.30;;;;;;;;;;5046548;28;20028;-49
2021/04/13 10:13:23;;;;;;;6.88;1.80;;;;;;;;;;5051928;28;20021;-48
2021/04/13 10:15:55;;;;;;;4.07;1.83;;;;;;;;;;5052226;28;20090;-50
2021/04/13 10:18:40;;;;;;;6.03;2.00;;;;;;;;;;5044054;28;20025;-50
2021/04/13 10:21:06;;;;;;;7.15;1.90;;;;;;;;;;5050981;28;20134;-48
2021/04/13 10:23:54;;;;;;;9.82;1.77;;;;;;;;;;5051420;28;20520;-48
2021/04/13 10:26:35;;;;;;;8.73;2.10;;;;;;;;;;5053070;28;20449;-48
2021/04/13 10:29:19;;;;;;;8.02;1.85;;;;;;;;;;5052328;28;20036;-49
2021/04/13 10:32:06;;;;;;;5.55;1.80;;;;;;;;;;5053908;28;20032;-51
2021/04/13 10:34:51;;;;;;;7.40;2.33;;;;;;;;;;5051451;28;20058;-48
2021/04/13 10:37:29;;;;;;;5.93;2.30;;;;;;;;;;5053276;28;20036;-51
2021/04/13 10:40:04;;;;;;;6.70;2.15;;;;;;;;;;5053831;28;20112;-48
2021/04/13 10:42:48;;;;;;;10.73;2.10;;;;;;;;;;5059331;28;20075;-48
2021/04/13 10:45:20;;;;;;;7.93;1.65;;;;;;;;;;5051076;28;20025;-48
2021/04/13 10:48:05;;;;;;;10.73;1.80;;;;;;;;;;5051251;28;20143;-49
2021/04/13 10:50:40;;;;;;;8.18;2.60;;;;;;;;;;5051352;28;20037;-48
2021/04/13 10:53:19;;;;;;;5.03;2.00;;;;;;;;;;5050823;28;20482;-51
2021/04/13 10:55:48;;;;;;;9.02;2.10;;;;;;;;;;5048092;28;20743;-48
2021/04/13 10:58:33;;;;;;;6.47;1.80;;;;;;;;;;5047498;28;20100;-49
2021/04/13 11:01:18;;;;;;;5.13;1.50;;;;;;;;;;5057485;28;20083;-48
2021/04/13 11:03:50;;;;;;;4.85;1.48;;;;;;;;;;5049495;28;20033;-49
2021/04/13 11:06:36;;;;;;;7.68;1.75;;;;;;;;;;5040005;28;20116;-50
2021/04/13 11:09:08;;;;;;;6.25;1.58;;;;;;;;;;5056732;28;20507;-52
2021/04/13 11:11:42;;;;;;;5.38;1.65;;;;;;;;;;5042680;28;20513;-50
2021/04/13 11:14:18;;;;;;;10.18;1.83;;;;;;;;;;5051569;28;20580;-51
2021/04/13 11:16:50;;;;;;;11.43;1.70;;;;;;;;;;5055720;28;20029;-49
2021/04/13 11:19:22;;;;;;;7.05;1.77;;;;;;;;;;5051058;28;20033;-51
2021/04/13 11:21:51;;;;;;;6.03;1.65;;;;;;;;;;5051476;28;20025;-48
2021/04/13 11:24:37;;;;;;;7.30;1.20;;;;;;;;;;5051926;28;20029;-48
2021/04/13 11:27:26;;;;;;;4.15;1.40;;;;;;;;;;5042883;28;20346;-49
2021/04/13 11:30:08;;;;;;;5.97;1.60;;;;;;;;;;5048718;28;20091;-50
2021/04/13 11:32:41;;;;;;;6.93;1.77;;;;;;;;;;5048921;28;20178;-52
2021/04/13 11:35:27;;;;;;;5.85;1.00;;;;;;;;;;5043481;28;20040;-49
2021/04/13 11:38:09;;;;;;;3.17;1.08;;;;;;;;;;5049472;28;20029;-51
2021/04/13 11:40:38;;;;;;;7.03;1.45;;;;;;;;;;5040104;28;20381;-48
2021/04/13 11:43:05;;;;;;;6.78;1.67;;;;;;;;;;5047433;28;20030;-48
2021/04/13 11:45:49;;;;;;;3.97;1.40;;;;;;;;;;5047417;28;20059;-49
2021/04/13 11:48:22;;;;;;;5.15;1.83;;;;;;;;;;5046174;28;20032;-51
2021/04/13 11:51:03;;;;;;;7.07;1.50;;;;;;;;;;5041708;28;20056;-48
2021/04/13 11:53:30;;;;;;;4.45;1.70;;;;;;;;;;5047820;28;20420;-50
2021/04/13 11:55:56;;;;;;;5.47;1.45;;;;;;;;;;5048809;28;20029;-48
2021/04/13 11:58:27;;;;;;;4.78;1.35;;;;;;;;;;5051784;28;20039;-48
2021/04/13 12:00:55;;;;;;;5.22;1.50;;;;;;;;;;5053863;28;20378;-48
2021/04/13 12:03:23;;;;;;;5.13;1.52;;;;;;;;;;5051123;28;20467;-51
2021/04/13 12:05:56;;;;;;;9.20;1.40;;;;;;;;;;5050027;28;20608;-48
2021/04/13 12:08:31;;;;;;;6.70;1.73;;;;;;;;;;5050821;28;20527;-48
2021/04/13 12:10:59;;;;;;;3.72;1.55;;;;;;;;;;5049643;28;20021;-50
2021/04/13 12:13:44;;;;;;;2.97;1.38;;;;;;;;;;5050389;28;20104;-50
2021/04/13 12:16:11;;;;;;;9.40;1.38;;;;;;;;;;5047920;28;20068;-50
2021/04/13 12:18:38;;;;;;;4.35;1.65;;;;;;;;;;5050149;28;20039;-49
2021/04/13 12:21:22;;;;;;;5.68;1.52;;;;;;;;;;5055315;28;20149;-49
2021/04/13 12:23:56;;;;;;;9.40;1.08;;;;;;;;;;5045297;28;20038;-48
2021/04/13 12:26:33;;;;;;;5.20;1.13;;;;;;;;;;5058226;28;20239;-48
2021/04/13 12:29:20;;;;;;;4.15;1.30;;;;;;;;;;5053394;28;20043;-48
2021/04/13 12:32:05;;;;;;;3.95;1.23;;;;;;;;;;5043323;28;20037;-49
2021/04/13 12:34:45;;;;;;;4.72;1.40;;;;;;;;;;5054897;28;20029;-49
2021/04/13 12:37:30;;;;;;;7.88;1.85;;;;;;;;;;5054314;28;20033;-48
2021/04/13 12:39:56;;;;;;;6.20;1.60;;;;;;;;;;5055506;28;20082;-49
2021/04/13 12:42:28;;;;;;;4.82;1.42;;;;;;;;;;5062738;28;20032;-48
2021/04/13 12:45:12;;;;;;;6.18;1.25;;;;;;;;;;5062423;28;20740;-49
2021/04/13 12:47:38;;;;;;;5.32;1.10;;;;;;;;;;5051530;28;20104;-49
2021/04/13 12:50:12;;;;;;;4.90;1.33;;;;;;;;;;5051445;28;20112;-50
2021/04/13 12:52:38;;;;;;;7.78;1.17;;;;;;;;;;5061004;28;20128;-53
2021/04/13 12:55:14;;;;;;;5.30;1.10;;;;;;;;;;5059443;28;20029;-51
2021/04/13 12:57:51;;;;;;;3.10;1.15;;;;;;;;;;5057230;28;20032;-48
2021/04/13 13:00:17;;;;;;;3.03;0.93;;;;;;;;;;5049525;28;20471;-48
2021/04/13 13:02:45;;;;;;;6.88;1.25;;;;;;;;;;5040696;28;20048;-51
2021/04/13 13:05:18;;;;;;;3.95;1.25;;;;;;;;;;5058171;28;20481;-49
2021/04/13 13:07:50;;;;;;;7.82;1.20;;;;;;;;;;5054286;28;20098;-50
2021/04/13 13:10:17;;;;;;;6.17;1.13;;;;;;;;;;5054211;28;20123;-49
2021/04/13 13:12:43;;;;;;;4.28;1.17;;;;;;;;;;5054279;28;20036;-48
2021/04/13 13:15:10;;;;;;;5.00;1.35;;;;;;;;;;5059879;28;20519;-49
2021/04/13 13:17:41;;;;;;;4.55;1.15;;;;;;;;;;5058943;28;20017;-49
2021/04/13 13:20:08;;;;;;;9.27;1.70;;;;;;;;;;5062400;28;20020;-51
2021/04/13 13:22:35;;;;;;;2.60;1.10;;;;;;;;;;5059067;28;20039;-48
2021/04/13 13:25:18;;;;;;;10.98;1.20;;;;;;;;;;5055608;28;20036;-51
2021/04/13 13:27:44;;;;;;;3.90;1.00;;;;;;;;;;5048102;28;20582;-51
2021/04/13 13:30:12;;;;;;;5.43;1.33;;;;;;;;;;5059466;28;20036;-48
2021/04/13 13:32:39;;;;;;;4.28;1.20;;;;;;;;;;5056400;28;20068;-48
2021/04/13 13:35:09;;;;;;;5.78;0.93;;;;;;;;;;5053301;28;20025;-48
2021/04/13 13:37:39;;;;;;;6.82;1.38;;;;;;;;;;5047642;28;20028;-48
2021/04/13 13:40:23;;;;;;;9.30;1.45;;;;;;;;;;5049149;28;20558;-48
2021/04/13 13:42:49;;;;;;;4.03;1.05;;;;;;;;;;5038349;28;20033;-48
2021/04/13 13:45:29;;;;;;;4.57;1.17;;;;;;;;;;5057215;28;20032;-47
2021/04/13 13:47:55;;;;;;;4.63;0.63;;;;;;;;;;5054035;28;20037;-51
2021/04/13 13:50:27;;;;;;;3.53;1.00;;;;;;;;;;5057875;28;20113;-51
2021/04/13 13:52:56;;;;;;;5.30;1.30;;;;;;;;;;5044728;28;20466;-53
2021/04/13 13:55:36;;;;;;;9.15;1.40;;;;;;;;;;5058056;28;20021;-51
2021/04/13 13:58:05;;;;;;;4.00;1.13;;;;;;;;;;5052226;28;20029;-52
2021/04/13 14:00:42;;;;;;;4.47;0.80;;;;;;;;;;5052116;28;20087;-53
2021/04/13 14:03:09;;;;;;;7.97;1.20;;;;;;;;;;5049917;28;20036;-52
2021/04/13 14:05:36;;;;;;;3.78;1.30;;;;;;;;;;5060003;28;20039;-51
2021/04/13 14:08:12;;;;;;;4.68;0.93;;;;;;;;;;5057423;28;20033;-55
2021/04/13 14:10:40;;;;;;;5.82;0.98;;;;;;;;;;5054710;28;20115;-54
2021/04/13 14:13:26;;;;;;;6.88;1.00;;;;;;;;;;5061903;28;20037;-54
2021/04/13 14:15:52;;;;;;;2.45;0.80;;;;;;;;;;5049601;28;20051;-54
2021/04/13 14:18:21;;;;;;;3.05;1.00;;;;;;;;;;5047228;28;20100;-53
2021/04/13 14:21:06;;;;;;;2.80;0.80;;;;;;;;;;5050670;28;20029;-49
2021/04/13 14:23:33;;;;;;;6.57;1.10;;;;;;;;;;5054832;28;21664;-54
2021/04/13 14:26:09;;;;;;;5.10;1.45;;;;;;;;;;5045135;28;20037;-54
2021/04/13 14:28:35;;;;;;;5.82;1.10;;;;;;;;;;5043867;28;20429;-52
2021/04/13 14:31:12;;;;;;;7.28;1.20;;;;;;;;;;5048273;28;20032;-53
2021/04/13 14:33:38;;;;;;;4.18;1.15;;;;;;;;;;5039856;28;20104;-56
2021/04/13 14:36:04;;;;;;;7.93;1.25;;;;;;;;;;5042366;28;20086;-54
2021/04/13 14:38:31;;;;;;;7.78;0.95;;;;;;;;;;5040793;28;20420;-52
2021/04/13 14:40:57;;;;;;;5.57;1.08;;;;;;;;;;5041392;28;20031;-55
2021/04/13 14:43:23;;;;;;;5.00;1.00;;;;;;;;;;5039505;28;20033;-53
2021/04/13 14:45:49;;;;;;;4.38;0.82;;;;;;;;;;5040663;28;20032;-55
2021/04/13 14:48:17;;;;;;;5.28;0.80;;;;;;;;;;5038798;28;20029;-54
2021/04/13 14:50:44;;;;;;;6.15;1.33;;;;;;;;;;5043054;28;20032;-54
2021/04/13 14:53:11;;;;;;;4.72;0.88;;;;;;;;;;5047901;28;20127;-51
2021/04/13 14:55:37;;;;;;;3.55;1.17;;;;;;;;;;5054799;28;20028;-54
2021/04/13 14:58:05;;;;;;;6.35;1.00;;;;;;;;;;5060734;28;20196;-55
2021/04/13 15:00:32;;;;;;;3.70;1.23;;;;;;;;;;5053622;28;20051;-55
2021/04/13 15:02:58;;;;;;;4.57;0.90;;;;;;;;;;5049317;28;20044;-55
2021/04/13 15:05:25;;;;;;;5.50;1.27;;;;;;;;;;5050113;28;20028;-55
2021/04/13 15:07:51;;;;;;;6.95;1.05;;;;;;;;;;5063397;28;20032;-55
2021/04/13 15:10:20;;;;;;;4.25;0.80;;;;;;;;;;5056755;28;20083;-53